createdAt,value
2023-04-10T00:01:26.120Z,95.45
2023-04-10T00:03:54.254Z,94.64
2023-04-10T00:06:22.254Z,94.36
2023-04-10T00:08:50.008Z,94.39
2023-04-10T00:11:17.743Z,94.56
2023-04-10T00:13:45.523Z,95.72
2023-04-10T00:16:13.285Z,95.65
2023-04-10T00:18:42.370Z,95.71
2023-04-10T00:21:10.111Z,95.55
2023-04-10T00:23:38.287Z,97.37
2023-04-10T00:26:06.509Z,97.15
2023-04-10T00:28:37.923Z,97.31
2023-04-10T00:31:06.303Z,97.39
2023-04-10T00:33:34.122Z,97.54
2023-04-10T00:36:03.310Z,97.07
2023-04-10T00:38:31.125Z,96.46
2023-04-10T00:40:58.887Z,96.71
2023-04-10T00:43:27.323Z,97.32
2023-04-10T00:45:55.363Z,97.59
2023-04-10T00:48:23.379Z,97.40
2023-04-10T00:50:51.137Z,97.45
2023-04-10T00:53:20.305Z,97.75
2023-04-10T00:55:49.010Z,97.72
2023-04-10T00:58:16.912Z,97.20
2023-04-10T01:00:44.922Z,97.66
2023-04-10T01:03:14.139Z,98.75
2023-04-10T01:05:48.759Z,98.41
2023-04-10T01:08:31.940Z,98.98
2023-04-10T01:11:06.572Z,99.18
2023-04-10T01:13:43.315Z,99.16
2023-04-10T01:16:17.365Z,99.71
2023-04-10T01:18:51.651Z,100.00
2023-04-10T01:21:19.677Z,97.98
2023-04-10T01:24:08.501Z,96.22
2023-04-10T01:26:53.971Z,97.30
2023-04-10T01:29:27.842Z,98.54
2023-04-10T01:32:02.998Z,97.16
2023-04-10T01:34:36.768Z,97.70
2023-04-10T01:37:09.334Z,97.49
2023-04-10T01:39:40.940Z,93.65
2023-04-10T01:42:10.317Z,92.25
2023-04-10T01:44:45.333Z,93.56
2023-04-10T01:47:15.657Z,89.47
2023-04-10T01:49:46.260Z,91.54
2023-04-10T01:52:15.254Z,91.44
2023-04-10T01:54:48.944Z,93.49
2023-04-10T01:57:23.694Z,92.32
2023-04-10T01:59:59.135Z,91.67
2023-04-10T02:02:31.145Z,93.70
2023-04-10T02:04:59.116Z,93.40
2023-04-10T02:07:32.531Z,92.75
2023-04-10T02:10:05.818Z,94.73
2023-04-10T02:12:39.251Z,94.52
2023-04-10T02:15:11.597Z,94.03
2023-04-10T02:17:40.710Z,94.85
2023-04-10T02:20:10.604Z,92.58
2023-04-10T02:22:38.602Z,92.60
2023-04-10T02:25:07.126Z,93.30
2023-04-10T02:27:36.697Z,93.98
2023-04-10T02:30:05.900Z,95.05
2023-04-10T02:32:37.804Z,95.55
2023-04-10T02:35:09.489Z,95.88
2023-04-10T02:37:38.452Z,94.24
2023-04-10T02:40:07.905Z,95.38
2023-04-10T02:42:53.000Z,96.49
2023-04-10T02:45:20.785Z,94.84
2023-04-10T02:47:50.244Z,96.34
2023-04-10T02:50:18.256Z,95.61
2023-04-10T02:52:47.352Z,96.61
2023-04-10T02:55:15.564Z,96.67
2023-04-10T02:57:43.812Z,96.31
2023-04-10T03:00:13.086Z,96.16
2023-04-10T03:03:11.337Z,96.03
2023-04-10T03:05:50.411Z,96.51
2023-04-10T03:08:23.918Z,97.46
2023-04-10T03:10:51.677Z,96.38
2023-04-10T03:13:19.832Z,96.72
2023-04-10T03:15:47.963Z,96.70
2023-04-10T03:18:17.234Z,98.09
2023-04-10T03:20:47.219Z,97.54
2023-04-10T03:23:14.961Z,97.22
2023-04-10T03:25:43.354Z,96.47
2023-04-10T03:28:12.001Z,97.69
2023-04-10T03:30:39.808Z,97.19
2023-04-10T03:33:07.556Z,94.18
2023-04-10T03:35:36.734Z,96.74
2023-04-10T03:38:04.578Z,95.78
2023-04-10T03:40:34.141Z,95.43
2023-04-10T03:43:02.061Z,95.44
2023-04-10T03:45:32.692Z,95.39
2023-04-10T03:48:01.263Z,93.62
2023-04-10T03:50:39.788Z,92.94
2023-04-10T03:53:07.798Z,91.36
2023-04-10T03:55:36.881Z,91.72
2023-04-10T03:58:05.240Z,90.88
2023-04-10T04:00:34.140Z,89.72
2023-04-10T04:03:19.017Z,87.99
2023-04-10T04:05:48.290Z,86.73
2023-04-10T04:08:32.340Z,88.09
2023-04-10T04:11:06.266Z,85.44
2023-04-10T04:13:54.672Z,86.96
2023-04-10T04:16:37.774Z,87.09
2023-04-10T04:19:23.943Z,87.16
2023-04-10T04:22:08.970Z,84.18
2023-04-10T04:24:55.056Z,86.08
2023-04-10T04:27:49.356Z,86.68
2023-04-10T04:30:32.485Z,84.85
2023-04-10T04:33:26.143Z,81.68
2023-04-10T04:36:03.581Z,81.14
2023-04-10T04:38:58.737Z,81.30
2023-04-10T04:41:33.230Z,82.27
2023-04-10T04:44:21.282Z,83.33
2023-04-10T04:47:08.821Z,80.28
2023-04-10T04:50:11.630Z,78.09
2023-04-10T04:53:14.946Z,76.91
2023-04-10T04:55:54.586Z,76.71
2023-04-10T04:58:45.405Z,76.47
2023-04-10T05:01:29.499Z,77.90
2023-04-10T05:04:16.225Z,77.62
2023-04-10T05:07:04.426Z,76.62
2023-04-10T05:09:57.979Z,78.89
2023-04-10T05:12:45.991Z,81.81
2023-04-10T05:15:36.629Z,82.33
2023-04-10T05:18:28.721Z,79.30
2023-04-10T05:21:02.268Z,79.27
2023-04-10T05:23:53.374Z,78.93
2023-04-10T05:26:44.016Z,77.44
2023-04-10T05:29:33.418Z,75.71
2023-04-10T05:32:20.262Z,78.33
2023-04-10T05:35:14.348Z,76.86
2023-04-10T05:37:48.045Z,77.81
2023-04-10T05:40:31.179Z,79.55
2023-04-10T05:43:22.008Z,75.62
2023-04-10T05:46:14.780Z,74.89
2023-04-10T05:49:01.205Z,74.79
2023-04-10T05:51:42.054Z,73.68
2023-04-10T05:54:19.019Z,73.71
2023-04-10T05:57:09.479Z,73.93
2023-04-10T05:59:55.734Z,74.50
2023-04-10T06:02:25.259Z,73.57
2023-04-10T06:04:53.330Z,73.13
2023-04-10T06:07:21.428Z,74.30
2023-04-10T06:09:49.152Z,73.70
2023-04-10T06:12:17.242Z,73.98
2023-04-10T06:14:45.030Z,74.68
2023-04-10T06:17:13.244Z,74.43
2023-04-10T06:19:42.404Z,73.20
2023-04-10T06:22:10.105Z,72.58
2023-04-10T06:24:37.932Z,72.64
2023-04-10T06:27:07.183Z,73.01
2023-04-10T06:29:35.960Z,72.91
2023-04-10T06:32:03.951Z,73.04
2023-04-10T06:34:36.363Z,72.50
2023-04-10T06:37:08.459Z,73.47
2023-04-10T06:39:39.314Z,71.33
2023-04-10T06:42:07.133Z,72.15
2023-04-10T06:44:44.377Z,71.30
2023-04-10T06:47:13.226Z,70.60
2023-04-10T06:49:40.969Z,70.75
2023-04-10T06:52:11.350Z,69.95
2023-04-10T06:54:39.226Z,70.51
2023-04-10T06:57:07.075Z,71.37
2023-04-10T06:59:35.752Z,70.70
2023-04-10T07:02:04.407Z,70.24
2023-04-10T07:04:33.992Z,69.11
2023-04-10T07:07:01.936Z,69.75
2023-04-10T07:09:32.004Z,69.76
2023-04-10T07:11:59.861Z,69.00
2023-04-10T07:14:27.607Z,69.34
2023-04-10T07:17:01.537Z,67.88
2023-04-10T07:19:29.454Z,67.99
2023-04-10T07:21:57.162Z,67.72
2023-04-10T07:24:25.292Z,67.01
2023-04-10T07:26:55.255Z,67.65
2023-04-10T07:29:29.260Z,66.86
2023-04-10T07:31:57.495Z,66.19
2023-04-10T07:34:25.777Z,66.26
2023-04-10T07:36:53.723Z,65.18
2023-04-10T07:39:21.499Z,64.72
2023-04-10T07:41:49.183Z,64.41
2023-04-10T07:44:18.539Z,63.30
2023-04-10T07:46:46.298Z,63.32
2023-04-10T07:49:13.944Z,62.59
2023-04-10T07:51:41.673Z,62.01
2023-04-10T07:54:09.457Z,61.63
2023-04-10T07:56:37.111Z,61.64
2023-04-10T07:59:04.900Z,61.38
2023-04-10T08:01:34.393Z,61.27
2023-04-10T08:04:05.349Z,62.21
2023-04-10T08:06:33.783Z,61.06
2023-04-10T08:09:02.056Z,60.96
2023-04-10T08:11:31.761Z,61.45
2023-04-10T08:14:02.525Z,60.52
2023-04-10T08:16:31.976Z,61.83
2023-04-10T08:19:02.032Z,60.39
2023-04-10T08:21:31.723Z,60.44
2023-04-10T08:24:00.864Z,59.35
2023-04-10T08:26:28.942Z,59.64
2023-04-10T08:28:58.296Z,59.44
2023-04-10T08:31:27.973Z,58.24
2023-04-10T08:33:56.492Z,57.23
2023-04-10T08:36:27.155Z,59.19
2023-04-10T08:38:55.059Z,59.40
2023-04-10T08:41:22.936Z,59.15
2023-04-10T08:43:51.661Z,58.24
2023-04-10T08:46:20.163Z,57.72
2023-04-10T08:48:49.605Z,56.51
2023-04-10T08:51:26.155Z,57.32
2023-04-10T08:54:03.628Z,57.61
2023-04-10T08:56:33.675Z,56.33
2023-04-10T08:59:03.360Z,55.26
2023-04-10T09:01:31.853Z,54.85
2023-04-10T09:04:00.208Z,55.50
2023-04-10T09:06:28.384Z,55.31
2023-04-10T09:12:00.411Z,55.66
2023-04-10T09:14:29.965Z,53.92
2023-04-10T09:17:13.048Z,52.74
2023-04-10T09:19:40.908Z,52.62
2023-04-10T09:22:08.700Z,52.28
2023-04-10T09:24:39.254Z,52.45
2023-04-10T09:27:07.760Z,52.15
2023-04-10T09:29:44.940Z,52.57
2023-04-10T09:32:12.930Z,50.75
2023-04-10T09:35:01.726Z,50.87
2023-04-10T09:37:32.746Z,50.27
2023-04-10T09:40:02.206Z,50.49
2023-04-10T09:42:32.786Z,49.63
2023-04-10T09:45:01.289Z,49.24
2023-04-10T09:47:30.025Z,49.16
2023-04-10T09:50:00.647Z,47.44
2023-04-10T09:52:30.834Z,48.82
2023-04-10T09:55:01.852Z,48.14
2023-04-10T09:57:31.344Z,48.27
2023-04-10T10:00:01.122Z,48.53
2023-04-10T10:02:31.178Z,48.75
2023-04-10T10:05:01.449Z,47.90
2023-04-10T10:07:31.133Z,48.59
2023-04-10T10:10:03.834Z,48.30
2023-04-10T10:12:37.140Z,47.42
2023-04-10T10:15:11.065Z,46.67
2023-04-10T10:17:44.127Z,46.73
2023-04-10T10:20:14.373Z,47.55
2023-04-10T10:22:43.094Z,46.95
2023-04-10T10:25:14.120Z,47.54
2023-04-10T10:27:42.996Z,47.56
2023-04-10T10:30:28.132Z,45.69
2023-04-10T10:32:59.329Z,45.82
2023-04-10T10:35:29.506Z,45.69
2023-04-10T10:38:00.664Z,44.01
2023-04-10T10:40:32.942Z,43.98
2023-04-10T10:43:10.115Z,43.76
2023-04-10T10:45:45.344Z,42.88
2023-04-10T10:48:13.454Z,42.35
2023-04-10T10:50:57.175Z,40.54
2023-04-10T10:53:36.299Z,41.89
2023-04-10T10:56:36.998Z,43.43
2023-04-10T10:59:04.760Z,42.81
2023-04-10T11:01:32.613Z,43.19
2023-04-10T11:04:01.329Z,42.73
2023-04-10T11:06:52.397Z,41.76
2023-04-10T11:09:48.784Z,43.82
2023-04-10T11:12:20.406Z,42.57
2023-04-10T11:14:59.112Z,42.51
2023-04-10T11:17:51.269Z,43.15
2023-04-10T11:20:28.927Z,42.63
2023-04-10T11:23:12.203Z,41.23
2023-04-10T11:25:51.275Z,40.91
2023-04-10T11:28:40.325Z,39.40
2023-04-10T11:31:19.789Z,40.09
2023-04-10T11:33:49.319Z,40.76
2023-04-10T11:36:18.547Z,39.16
2023-04-10T11:38:57.216Z,40.64
2023-04-10T11:41:30.595Z,41.44
2023-04-10T11:44:00.364Z,40.40
2023-04-10T11:46:28.409Z,40.23
2023-04-10T11:48:59.108Z,40.06
2023-04-10T11:51:28.294Z,41.24
2023-04-10T11:54:07.085Z,42.04
2023-04-10T11:56:35.355Z,41.79
2023-04-10T11:59:07.864Z,41.93
2023-04-10T12:01:35.781Z,41.25
2023-04-10T12:04:03.892Z,42.99
2023-04-10T12:06:32.846Z,42.57
2023-04-10T12:09:00.640Z,41.89
2023-04-10T12:11:29.640Z,42.93
2023-04-10T12:13:58.949Z,42.20
2023-04-10T12:16:28.505Z,42.84
2023-04-10T12:18:57.054Z,42.87
2023-04-10T12:21:26.217Z,42.46
2023-04-10T12:23:53.995Z,43.18
2023-04-10T12:26:22.134Z,43.07
2023-04-10T12:28:55.519Z,42.68
2023-04-10T12:31:32.729Z,41.26
2023-04-10T12:34:02.253Z,42.17
2023-04-10T12:36:32.209Z,40.51
2023-04-10T12:39:01.350Z,41.20
2023-04-10T12:41:31.197Z,40.22
2023-04-10T12:44:09.860Z,41.50
2023-04-10T12:46:40.036Z,40.36
2023-04-10T12:49:12.479Z,38.58
2023-04-10T12:51:46.883Z,40.31
2023-04-10T12:54:28.678Z,40.51
2023-04-10T12:56:57.706Z,39.81
2023-04-10T12:59:26.511Z,41.03
2023-04-10T13:01:56.452Z,40.25
2023-04-10T13:04:24.996Z,40.91
2023-04-10T13:06:53.535Z,40.60
2023-04-10T13:09:21.702Z,40.23
2023-04-10T13:11:51.518Z,40.92
2023-04-10T13:14:19.727Z,40.22
2023-04-10T13:16:47.543Z,39.06
2023-04-10T13:19:16.693Z,39.83
2023-04-10T13:21:44.439Z,40.60
2023-04-10T13:24:12.601Z,41.07
2023-04-10T13:26:41.374Z,41.50
2023-04-10T13:29:09.123Z,41.23
2023-04-10T13:31:36.992Z,41.63
2023-04-10T13:34:04.771Z,41.25
2023-04-10T13:36:33.910Z,40.85
2023-04-10T13:39:01.746Z,41.59
2023-04-10T13:41:29.548Z,40.55
2023-04-10T13:43:57.275Z,40.29
2023-04-10T13:46:25.534Z,41.30
2023-04-10T13:48:53.268Z,40.30
2023-04-10T13:51:20.989Z,41.36
2023-04-10T13:53:50.079Z,40.89
2023-04-10T13:56:17.839Z,40.34
2023-04-10T13:58:47.084Z,42.56
2023-04-10T14:01:14.940Z,41.03
2023-04-10T14:03:42.887Z,41.03
2023-04-10T14:06:10.674Z,40.85
2023-04-10T14:08:38.457Z,40.51
2023-04-10T14:11:08.208Z,41.22
2023-04-10T14:13:36.010Z,41.05
2023-04-10T14:16:04.371Z,41.18
2023-04-10T14:18:32.196Z,41.81
2023-04-10T14:20:59.884Z,41.11
2023-04-10T14:23:27.631Z,40.61
2023-04-10T14:25:55.436Z,41.67
2023-04-10T14:28:24.518Z,41.32
2023-04-10T14:30:52.785Z,41.71
2023-04-10T14:33:21.044Z,42.97
2023-04-10T14:35:49.252Z,42.20
2023-04-10T14:38:17.175Z,42.76
2023-04-10T14:40:48.478Z,41.85
2023-04-10T14:43:16.179Z,41.72
2023-04-10T14:45:45.300Z,41.71
2023-04-10T14:48:13.684Z,41.53
2023-04-10T14:50:41.490Z,41.20
2023-04-10T14:53:10.456Z,40.56
2023-04-10T14:55:38.212Z,38.53
2023-04-10T14:58:06.740Z,38.66
2023-04-10T15:00:34.630Z,38.21
2023-04-10T15:03:05.465Z,38.31
2023-04-10T15:05:33.542Z,38.23
2023-04-10T15:08:01.310Z,38.48
2023-04-10T15:10:29.980Z,40.04
2023-04-10T15:12:57.746Z,39.12
2023-04-10T15:15:25.547Z,40.10
2023-04-10T15:17:53.294Z,39.81
2023-04-10T15:20:22.407Z,39.06
2023-04-10T15:22:50.088Z,38.36
2023-04-10T15:25:17.817Z,40.10
2023-04-10T15:27:45.688Z,39.42
2023-04-10T15:30:13.783Z,39.81
2023-04-10T15:32:41.505Z,40.04
2023-04-10T15:35:09.708Z,41.61
2023-04-10T15:37:38.784Z,40.72
2023-04-10T15:40:07.590Z,41.66
2023-04-10T15:42:35.634Z,41.51
2023-04-10T15:45:03.544Z,41.67
2023-04-10T15:47:31.392Z,41.92
2023-04-10T15:49:59.353Z,43.01
2023-04-10T15:52:29.175Z,42.91
2023-04-10T15:54:58.402Z,42.73
2023-04-10T15:57:26.319Z,43.09
2023-04-10T15:59:56.332Z,43.58
2023-04-10T16:02:24.310Z,43.48
2023-04-10T16:04:52.387Z,43.79
2023-04-10T16:07:20.983Z,44.33
2023-04-10T16:09:48.633Z,45.70
2023-04-10T16:12:17.746Z,45.35
2023-04-10T16:14:45.607Z,45.15
2023-04-10T16:17:13.327Z,45.07
2023-04-10T16:19:41.040Z,44.97
2023-04-10T16:22:08.931Z,45.74
2023-04-10T16:24:36.708Z,46.69
2023-04-10T16:27:05.052Z,48.17
2023-04-10T16:29:34.221Z,50.45
2023-04-10T16:32:02.112Z,49.28
2023-04-10T16:34:29.879Z,49.80
2023-04-10T16:36:57.657Z,54.17
2023-04-10T16:39:25.451Z,60.38
2023-04-10T16:41:53.631Z,70.29
2023-04-10T16:44:21.334Z,70.01
2023-04-10T16:46:50.434Z,73.83
2023-04-10T16:49:18.207Z,81.34
2023-04-10T16:51:45.916Z,83.30
2023-04-10T16:54:14.588Z,77.93
2023-04-10T16:56:42.732Z,77.46
2023-04-10T16:59:10.574Z,81.37
2023-04-10T17:01:40.483Z,78.75
2023-04-10T17:04:10.164Z,88.21
2023-04-10T17:06:37.856Z,82.21
2023-04-10T17:09:05.658Z,78.47
2023-04-10T17:11:33.402Z,76.34
2023-04-10T17:14:03.180Z,74.45
2023-04-10T17:16:31.114Z,75.91
2023-04-10T17:18:58.958Z,73.48
2023-04-10T17:21:28.209Z,73.30
2023-04-10T17:23:56.059Z,72.34
2023-04-10T17:26:24.175Z,75.71
2023-04-10T17:28:52.170Z,77.48
2023-04-10T17:31:20.614Z,72.62
2023-04-10T17:33:48.404Z,75.77
2023-04-10T17:36:16.190Z,73.54
2023-04-10T17:38:45.328Z,77.88
2023-04-10T17:41:16.678Z,74.77
2023-04-10T17:43:44.538Z,78.50
2023-04-10T17:46:14.524Z,74.89
2023-04-10T17:48:42.451Z,70.01
2023-04-10T17:51:10.720Z,70.90
2023-04-10T17:53:38.521Z,66.82
2023-04-10T17:56:08.608Z,67.23
2023-04-10T17:58:36.335Z,63.86
2023-04-10T18:01:04.106Z,64.01
2023-04-10T18:03:31.936Z,63.77
2023-04-10T18:06:00.010Z,67.82
2023-04-10T18:08:27.933Z,75.67
2023-04-10T18:10:55.740Z,76.27
2023-04-10T18:13:24.827Z,79.60
2023-04-10T18:15:52.506Z,70.98
2023-04-10T18:18:20.137Z,70.80
2023-04-10T18:20:47.813Z,72.56
2023-04-10T18:23:15.556Z,75.40
2023-04-10T18:25:43.295Z,72.87
2023-04-10T18:28:14.866Z,71.76
2023-04-10T18:30:45.149Z,71.09
2023-04-10T18:33:14.016Z,73.44
2023-04-10T18:35:42.164Z,69.49
2023-04-10T18:38:09.995Z,66.29
2023-04-10T18:40:37.774Z,67.07
2023-04-10T18:43:05.623Z,66.93
2023-04-10T18:45:34.399Z,66.77
2023-04-10T18:48:03.965Z,67.28
2023-04-10T18:50:34.655Z,70.45
2023-04-10T18:53:02.820Z,68.01
2023-04-10T18:55:30.706Z,69.57
2023-04-10T18:57:58.699Z,72.27
2023-04-10T19:00:26.621Z,82.15
2023-04-10T19:02:54.677Z,87.47
2023-04-10T19:05:23.896Z,95.66
2023-04-10T19:08:02.925Z,98.52
2023-04-10T19:10:32.514Z,99.60
2023-04-10T19:13:00.315Z,100.00
2023-04-10T19:15:28.324Z,100.00
2023-04-10T19:17:56.241Z,100.00
2023-04-10T19:20:52.080Z,100.00
2023-04-10T19:23:13.865Z,100.00
2023-04-10T19:25:42.596Z,100.00
2023-04-10T19:28:10.418Z,100.00
2023-04-10T19:30:38.218Z,100.00
2023-04-10T19:33:06.123Z,100.00
2023-04-10T19:35:35.361Z,100.00
2023-04-10T19:38:03.084Z,100.00
2023-04-10T19:40:30.997Z,100.00
2023-04-10T19:43:00.298Z,100.00
2023-04-10T19:45:29.269Z,100.00
2023-04-10T19:47:57.737Z,100.00
2023-04-10T19:50:25.689Z,100.00
2023-04-10T19:52:54.836Z,100.00
2023-04-10T19:55:22.724Z,100.00
2023-04-10T19:57:50.890Z,100.00
2023-04-10T20:00:19.016Z,100.00
2023-04-10T20:02:47.278Z,100.00
2023-04-10T20:05:15.448Z,100.00
2023-04-10T20:07:43.305Z,100.00
2023-04-10T20:10:12.810Z,100.00
2023-04-10T20:12:40.633Z,100.00
2023-04-10T20:15:09.776Z,100.00
2023-04-10T20:17:38.733Z,100.00
2023-04-10T20:20:07.634Z,100.00
2023-04-10T20:22:35.400Z,100.00
2023-04-10T20:25:03.169Z,100.00
2023-04-10T20:27:32.200Z,100.00
2023-04-10T20:29:59.950Z,100.00
2023-04-10T20:32:27.879Z,100.00
2023-04-10T20:34:55.683Z,100.00
2023-04-10T20:37:23.459Z,100.00
2023-04-10T20:39:51.784Z,100.00
2023-04-10T20:42:20.454Z,100.00
2023-04-10T20:44:50.006Z,100.00
2023-04-10T20:47:17.800Z,100.00
2023-04-10T20:49:45.776Z,100.00
2023-04-10T20:52:13.567Z,100.00
2023-04-10T20:54:41.342Z,100.00
2023-04-10T20:57:10.311Z,100.00
2023-04-10T20:59:38.040Z,100.00
2023-04-10T21:02:07.777Z,100.00
2023-04-10T21:04:35.727Z,100.00
2023-04-10T21:07:03.483Z,100.00
2023-04-10T21:09:31.411Z,100.00
2023-04-10T21:11:59.168Z,100.00
2023-04-10T21:14:26.897Z,100.00
2023-04-10T21:16:54.804Z,100.00
2023-04-10T21:19:23.963Z,100.00
2023-04-10T21:21:51.756Z,100.00
2023-04-10T21:24:19.457Z,100.00
2023-04-10T21:26:47.228Z,100.00
2023-04-10T21:29:14.957Z,100.00
2023-04-10T21:31:42.786Z,100.00
2023-04-10T21:34:10.569Z,100.00
2023-04-10T21:36:39.890Z,100.00
2023-04-10T21:39:09.086Z,100.00
2023-04-10T21:41:37.060Z,100.00
2023-04-10T21:44:04.857Z,100.00
2023-04-10T21:46:32.870Z,100.00
2023-04-10T21:49:01.055Z,100.00
2023-04-10T21:51:28.858Z,100.00
2023-04-10T21:53:57.979Z,100.00
2023-04-10T21:56:25.813Z,100.00
2023-04-10T21:58:53.985Z,100.00
2023-04-10T22:01:21.897Z,100.00
2023-04-10T22:03:50.620Z,100.00
2023-04-10T22:06:18.511Z,100.00
2023-04-10T22:08:46.703Z,100.00
2023-04-10T22:11:15.917Z,100.00
2023-04-10T22:13:43.604Z,100.00
2023-04-10T22:16:11.338Z,100.00
2023-04-10T22:18:39.062Z,100.00
2023-04-10T22:21:07.182Z,100.00
2023-04-10T22:23:34.919Z,100.00
2023-04-10T22:26:02.652Z,100.00
2023-04-10T22:28:31.782Z,100.00
2023-04-10T22:30:59.640Z,100.00
2023-04-10T22:33:27.475Z,100.00
2023-04-10T22:35:55.268Z,100.00
2023-04-10T22:38:22.996Z,100.00
2023-04-10T22:40:50.822Z,100.00
2023-04-10T22:43:18.608Z,100.00
2023-04-10T22:45:47.901Z,100.00
2023-04-10T22:48:15.719Z,100.00
2023-04-10T22:50:43.525Z,100.00
2023-04-10T22:53:11.857Z,100.00
2023-04-10T22:55:39.736Z,100.00
2023-04-10T22:58:08.094Z,100.00
2023-04-10T23:00:35.866Z,100.00
2023-04-10T23:03:05.284Z,100.00
2023-04-10T23:05:33.222Z,100.00
2023-04-10T23:08:00.913Z,100.00
2023-04-10T23:10:28.648Z,100.00
2023-04-10T23:12:56.415Z,100.00
2023-04-10T23:15:24.125Z,100.00
2023-04-10T23:17:51.853Z,100.00
2023-04-10T23:20:21.033Z,100.00
2023-04-10T23:22:48.748Z,100.00
2023-04-10T23:25:16.547Z,100.00
2023-04-10T23:27:44.326Z,100.00
2023-04-10T23:30:12.543Z,100.00
2023-04-10T23:32:40.408Z,100.00
2023-04-10T23:35:08.619Z,100.00
2023-04-10T23:37:37.731Z,100.00
2023-04-10T23:40:06.471Z,100.00
2023-04-10T23:42:34.248Z,100.00
2023-04-10T23:45:01.968Z,100.00
2023-04-10T23:47:29.848Z,100.00
2023-04-10T23:49:57.603Z,100.00
2023-04-10T23:52:25.346Z,100.00
2023-04-10T23:54:56.579Z,100.00
2023-04-10T23:57:24.536Z,100.00
2023-04-10T23:59:52.744Z,100.00
